createdAt,value
2023-04-18T20:02:26.539Z,31.35
2023-04-18T20:03:30.333Z,30.73
2023-04-18T20:04:34.463Z,31.30
2023-04-18T20:05:38.366Z,31.20
2023-04-18T20:06:42.131Z,32.90
2023-04-18T20:07:45.800Z,32.25
2023-04-18T20:08:49.535Z,31.40
2023-04-18T20:09:54.013Z,33.63
2023-04-18T20:10:57.696Z,31.80
2023-04-18T20:12:01.434Z,30.33
2023-04-18T20:13:05.008Z,29.77
2023-04-18T20:14:08.701Z,29.50
2023-04-18T20:15:13.162Z,29.67
2023-04-18T20:16:16.955Z,29.87
2023-04-18T20:17:20.803Z,32.28
2023-04-18T20:18:26.146Z,32.88
2023-04-18T20:19:29.970Z,33.50
2023-04-18T20:20:33.609Z,31.50
2023-04-18T20:21:37.211Z,32.20
2023-04-18T20:22:40.894Z,31.70
2023-04-18T20:23:44.598Z,30.75
2023-04-18T20:24:48.242Z,30.95
2023-04-18T20:25:51.900Z,32.28
2023-04-18T20:26:55.657Z,30.87
2023-04-18T20:27:59.276Z,30.35
2023-04-18T20:29:03.011Z,31.25
2023-04-18T20:30:07.774Z,30.05
2023-04-18T20:31:12.817Z,30.27
2023-04-18T20:32:16.588Z,30.97
2023-04-18T20:33:20.203Z,29.80
2023-04-18T20:34:25.584Z,30.95
2023-04-18T20:35:29.393Z,32.08
2023-04-18T20:36:33.130Z,29.70
2023-04-18T20:37:36.963Z,32.83
2023-04-18T20:38:40.722Z,30.38
2023-04-18T20:39:44.371Z,31.35
2023-04-18T20:40:48.489Z,29.35
2023-04-18T20:41:52.209Z,32.72
2023-04-18T20:42:56.384Z,30.37
2023-04-18T20:44:00.108Z,32.08
2023-04-18T20:45:03.854Z,32.55
2023-04-18T20:46:07.621Z,30.77
2023-04-18T20:47:12.374Z,32.13
2023-04-18T20:48:17.043Z,32.27
2023-04-18T20:49:20.808Z,30.45
2023-04-18T20:50:26.168Z,29.20
2023-04-18T20:51:29.808Z,28.65
2023-04-18T20:52:33.546Z,29.40
2023-04-18T20:53:37.209Z,30.07
2023-04-18T20:54:40.872Z,28.02
2023-04-18T20:55:44.611Z,30.42
2023-04-18T20:56:48.241Z,32.47
2023-04-18T20:57:51.933Z,31.33
2023-04-18T20:58:55.896Z,30.67
2023-04-18T20:59:59.521Z,29.30
2023-04-18T21:01:03.232Z,28.95
2023-04-18T21:02:08.933Z,31.50
2023-04-18T21:03:14.919Z,27.98
2023-04-18T21:04:19.376Z,30.73
2023-04-18T21:05:23.403Z,30.42
2023-04-18T21:06:28.787Z,32.13
2023-04-18T21:07:32.544Z,31.45
2023-04-18T21:08:36.217Z,31.35
2023-04-18T21:09:39.792Z,30.27
2023-04-18T21:10:43.612Z,28.25
2023-04-18T21:11:47.271Z,31.40
2023-04-18T21:12:50.998Z,29.70
2023-04-18T21:13:54.673Z,30.58
2023-04-18T21:14:58.326Z,28.27
2023-04-18T21:16:02.081Z,31.13
2023-04-18T21:17:05.809Z,31.27
2023-04-18T21:18:09.608Z,32.25
2023-04-18T21:19:13.447Z,30.05
2023-04-18T21:20:17.176Z,33.10
2023-04-18T21:21:20.923Z,32.55
2023-04-18T21:22:26.267Z,32.20
2023-04-18T21:23:29.962Z,30.52
2023-04-18T21:24:33.560Z,32.70
2023-04-18T21:25:37.246Z,31.90
2023-04-18T21:26:40.950Z,32.58
2023-04-18T21:27:44.639Z,31.58
2023-04-18T21:28:56.247Z,31.05
2023-04-18T21:30:00.412Z,31.63
2023-04-18T21:31:04.591Z,33.70
2023-04-18T21:32:08.375Z,34.72
2023-04-18T21:33:12.115Z,32.00
2023-04-18T21:34:16.011Z,33.88
2023-04-18T21:35:21.328Z,33.70
2023-04-18T21:36:28.113Z,36.53
2023-04-18T21:37:33.543Z,36.95
2023-04-18T21:38:37.201Z,38.20
2023-04-18T21:39:40.984Z,38.40
2023-04-18T21:40:44.642Z,36.13
2023-04-18T21:41:48.242Z,34.40
2023-04-18T21:42:52.047Z,34.42
2023-04-18T21:43:55.871Z,37.40
2023-04-18T21:44:59.616Z,37.22
2023-04-18T21:46:03.323Z,35.55
2023-04-18T21:47:07.086Z,38.10
2023-04-18T21:48:10.863Z,38.13
2023-04-18T21:49:14.520Z,36.75
2023-04-18T21:50:18.167Z,35.47
2023-04-18T21:51:21.860Z,39.47
2023-04-18T21:52:25.707Z,35.60
2023-04-18T21:53:31.038Z,36.42
2023-04-18T21:54:34.745Z,38.28
2023-04-18T21:55:38.427Z,36.40
2023-04-18T21:56:42.171Z,34.15
2023-04-18T21:57:45.808Z,37.60
2023-04-18T21:58:50.162Z,33.78
2023-04-18T21:59:53.872Z,35.20
2023-04-18T22:00:58.024Z,34.95
2023-04-18T22:02:01.731Z,36.65
2023-04-18T22:03:05.702Z,39.17
2023-04-18T22:04:09.656Z,38.78
2023-04-18T22:05:13.510Z,36.53
2023-04-18T22:06:17.501Z,36.45
2023-04-18T22:07:21.174Z,38.92
2023-04-18T22:08:25.107Z,38.10
2023-04-18T22:09:30.358Z,36.80
2023-04-18T22:10:34.121Z,37.03
2023-04-18T22:11:37.758Z,37.05
2023-04-18T22:12:41.375Z,35.03
2023-04-18T22:13:45.343Z,37.03
2023-04-18T22:14:49.021Z,37.47
2023-04-18T22:15:52.886Z,37.90
2023-04-18T22:16:56.623Z,39.50
2023-04-18T22:18:00.528Z,38.45
2023-04-18T22:19:04.280Z,38.97
2023-04-18T22:20:09.287Z,39.47
2023-04-18T22:21:12.935Z,38.65
2023-04-18T22:22:16.598Z,37.47
2023-04-18T22:23:20.290Z,38.40
2023-04-18T22:24:24.086Z,37.50
2023-04-18T22:25:29.383Z,38.65
2023-04-18T22:26:33.051Z,39.78
2023-04-18T22:27:36.650Z,38.90
2023-04-18T22:28:40.398Z,37.67
2023-04-18T22:29:44.134Z,36.10
2023-04-18T22:30:47.869Z,36.60
2023-04-18T22:31:51.596Z,35.35
2023-04-18T22:32:55.315Z,35.25
2023-04-18T22:33:59.015Z,38.72
2023-04-18T22:35:02.693Z,36.03
2023-04-18T22:36:06.987Z,36.75
2023-04-18T22:37:10.628Z,39.35
2023-04-18T22:38:14.295Z,37.47
2023-04-18T22:39:18.086Z,37.42
2023-04-18T22:40:22.015Z,36.87
2023-04-18T22:41:27.417Z,39.03
2023-04-18T22:42:32.131Z,37.83
2023-04-18T22:43:36.917Z,36.20
2023-04-18T22:44:40.623Z,39.45
2023-04-18T22:45:46.059Z,38.43
2023-04-18T22:46:49.892Z,39.55
2023-04-18T22:47:53.660Z,39.00
2023-04-18T22:48:57.386Z,38.85
2023-04-18T22:50:01.100Z,40.92
2023-04-18T22:51:04.879Z,37.00
2023-04-18T22:52:08.667Z,37.00
2023-04-18T22:53:12.699Z,38.90
2023-04-18T22:54:16.494Z,42.05
2023-04-18T22:55:20.306Z,40.08
2023-04-18T22:56:24.065Z,38.80
2023-04-18T22:57:29.686Z,38.03
2023-04-18T22:58:33.303Z,38.90
2023-04-18T22:59:37.037Z,39.55
2023-04-18T23:00:40.853Z,41.03
2023-04-18T23:01:44.738Z,39.03
2023-04-18T23:02:48.627Z,38.50
2023-04-18T23:03:53.193Z,41.38
2023-04-18T23:04:58.753Z,39.20
2023-04-18T23:06:22.567Z,39.67
2023-04-18T23:07:26.422Z,39.13
2023-04-18T23:08:30.669Z,41.00
2023-04-18T23:09:35.490Z,39.60
2023-04-18T23:10:42.813Z,38.85
2023-04-18T23:11:46.475Z,39.03
2023-04-18T23:12:53.259Z,42.87
2023-04-18T23:13:57.297Z,42.53
2023-04-18T23:15:01.028Z,41.60
2023-04-18T23:16:05.482Z,39.42
2023-04-18T23:17:09.349Z,37.45
2023-04-18T23:18:13.018Z,38.30
2023-04-18T23:19:16.605Z,37.60
2023-04-18T23:20:20.482Z,39.05
2023-04-18T23:21:24.186Z,38.58
2023-04-18T23:22:27.838Z,38.03
2023-04-18T23:23:31.462Z,42.20
2023-04-18T23:24:35.098Z,40.20
2023-04-18T23:25:38.724Z,43.53
2023-04-18T23:26:42.546Z,43.10
2023-04-18T23:27:46.194Z,39.60
2023-04-18T23:28:51.568Z,41.33
2023-04-18T23:29:55.327Z,40.83
2023-04-18T23:30:59.181Z,42.78
2023-04-18T23:32:02.829Z,44.70
2023-04-18T23:33:06.634Z,44.63
2023-04-18T23:34:11.049Z,43.97
2023-04-18T23:35:14.689Z,43.30
2023-04-18T23:36:18.447Z,41.85
2023-04-18T23:37:22.141Z,41.28
2023-04-18T23:38:25.986Z,42.33
2023-04-18T23:39:29.613Z,41.50
2023-04-18T23:40:33.304Z,43.50
2023-04-18T23:41:37.064Z,41.30
2023-04-18T23:42:40.750Z,43.28
2023-04-18T23:43:44.550Z,39.47
2023-04-18T23:44:50.009Z,42.70
2023-04-18T23:45:53.626Z,44.45
2023-04-18T23:46:57.386Z,42.80
2023-04-18T23:48:01.098Z,42.60
2023-04-18T23:49:04.806Z,40.95
2023-04-18T23:50:09.913Z,40.17
2023-04-18T23:51:13.587Z,39.58
2023-04-18T23:52:17.352Z,43.65
2023-04-18T23:53:21.816Z,41.65
2023-04-18T23:54:27.744Z,42.30
2023-04-18T23:55:31.440Z,39.30
2023-04-18T23:56:35.666Z,40.80
2023-04-18T23:57:39.335Z,41.50
2023-04-18T23:58:43.072Z,42.72
2023-04-18T23:59:48.376Z,41.75
